Time;durP1;ratioP1;P1;durP2;ratioP2;P2;SDS_P1;SDS_P2;PMS_P1;PMS_P2;Temp;Humidity;BMP_temperature;BMP_pressure;BME280_temperature;BME280_humidity;BME280_pressure;Samples;Min_cycle;Max_cycle;Signal;HPM_P1;HPM_P2
2022/04/06 00:02:09;;;;;;;14.48;2.67;;;19.40;76.10;;;;;;5005070;28;20028;-77
2022/04/06 00:04:35;;;;;;;12.65;2.85;;;19.40;76.20;;;;;;5009958;28;20124;-74
2022/04/06 00:07:03;;;;;;;16.40;3.25;;;19.40;76.20;;;;;;5007745;28;20413;-72
2022/04/06 00:09:29;;;;;;;18.95;3.47;;;19.40;76.20;;;;;;5006448;28;21022;-75
2022/04/06 00:11:56;;;;;;;11.68;3.92;;;19.40;76.00;;;;;;5007288;28;20515;-72
2022/04/06 00:14:22;;;;;;;13.18;2.80;;;19.40;75.90;;;;;;5006882;28;20026;-71
2022/04/06 00:16:49;;;;;;;11.60;2.50;;;19.40;75.80;;;;;;5006895;28;20026;-72
2022/04/06 00:19:15;;;;;;;14.55;3.03;;;19.40;75.70;;;;;;5008769;28;20014;-72
2022/04/06 00:21:42;;;;;;;18.35;3.13;;;19.40;75.50;;;;;;5004787;28;20320;-80
2022/04/06 00:24:08;;;;;;;10.57;3.70;;;19.40;75.40;;;;;;5006651;28;20104;-79
2022/04/06 00:26:35;;;;;;;16.30;4.53;;;19.40;75.20;;;;;;5007320;28;20022;-80
2022/04/06 00:29:02;;;;;;;9.55;4.05;;;19.40;75.10;;;;;;5007536;28;20041;-77
2022/04/06 00:31:30;;;;;;;14.95;3.20;;;19.30;74.90;;;;;;5006354;28;20462;-73
2022/04/06 00:33:56;;;;;;;15.00;3.63;;;19.30;74.90;;;;;;5004606;28;20021;-83
2022/04/06 00:36:23;;;;;;;12.60;4.20;;;19.30;75.10;;;;;;5003927;28;20077;-75
2022/04/06 00:38:49;;;;;;;24.05;3.60;;;19.20;75.50;;;;;;5008082;28;20152;-78
2022/04/06 00:41:16;;;;;;;15.68;3.42;;;19.20;75.60;;;;;;5006718;28;20057;-76
2022/04/06 00:43:43;;;;;;;15.85;4.05;;;19.20;75.60;;;;;;5000439;28;20030;-81
2022/04/06 00:46:09;;;;;;;12.70;3.83;;;19.20;75.60;;;;;;5003081;28;20014;-83
2022/04/06 00:48:36;;;;;;;13.65;3.42;;;19.20;75.90;;;;;;5005028;28;20041;-72
2022/04/06 00:51:02;;;;;;;14.43;3.95;;;19.20;76.00;;;;;;5004121;28;20022;-75
2022/04/06 00:53:29;;;;;;;13.38;3.90;;;19.20;76.00;;;;;;5008456;28;20030;-76
2022/04/06 00:55:56;;;;;;;9.60;3.30;;;19.20;76.00;;;;;;5007785;28;20061;-81
2022/04/06 00:58:23;;;;;;;21.65;5.32;;;19.20;76.00;;;;;;5005727;28;20025;-71
2022/04/06 01:00:49;;;;;;;13.35;3.40;;;19.20;76.00;;;;;;5006620;28;20076;-73
2022/04/06 01:03:16;;;;;;;14.75;3.15;;;19.10;75.90;;;;;;5004329;28;20109;-72
2022/04/06 01:05:43;;;;;;;11.48;2.45;;;19.10;75.70;;;;;;5002737;28;20867;-73
2022/04/06 01:08:11;;;;;;;24.58;3.63;;;19.10;75.50;;;;;;5007351;28;20037;-72
2022/04/06 01:10:37;;;;;;;8.10;2.30;;;19.10;75.50;;;;;;5008311;28;20022;-74
2022/04/06 01:13:04;;;;;;;6.57;1.58;;;19.10;75.60;;;;;;5006349;28;20044;-79
2022/04/06 01:15:32;;;;;;;10.68;2.33;;;19.10;75.70;;;;;;5004932;28;20068;-78
2022/04/06 01:17:59;;;;;;;7.93;2.20;;;19.10;75.90;;;;;;5010441;28;20410;-78
2022/04/06 01:20:26;;;;;;;6.45;2.70;;;19.10;76.10;;;;;;5002851;28;20548;-81
2022/04/06 01:22:52;;;;;;;7.00;2.60;;;19.00;76.20;;;;;;5009549;28;20026;-72
2022/04/06 01:25:19;;;;;;;10.18;2.20;;;19.00;76.30;;;;;;5006324;28;20469;-81
2022/04/06 01:27:45;;;;;;;8.43;1.85;;;19.10;76.30;;;;;;5005786;28;20010;-71
2022/04/06 01:30:12;;;;;;;8.48;1.90;;;19.00;76.30;;;;;;5007795;28;20030;-83
2022/04/06 01:32:39;;;;;;;6.47;2.42;;;19.00;76.30;;;;;;5006610;28;20101;-80
2022/04/06 01:35:06;;;;;;;18.05;3.35;;;19.00;76.50;;;;;;5004806;28;20022;-76
2022/04/06 01:37:34;;;;;;;10.82;3.15;;;19.10;76.50;;;;;;5003977;28;20033;-73
2022/04/06 01:40:01;;;;;;;10.30;2.92;;;19.10;76.70;;;;;;5008455;28;20477;-71
2022/04/06 01:42:28;;;;;;;7.40;2.20;;;19.10;76.80;;;;;;5008045;28;20540;-71
2022/04/06 01:44:54;;;;;;;14.55;3.05;;;19.10;76.90;;;;;;5008501;28;20018;-76
2022/04/06 01:47:21;;;;;;;8.68;2.58;;;19.10;76.80;;;;;;5012609;28;20109;-83
2022/04/06 01:52:35;;;;;;;7.72;2.17;;;19.10;76.60;;;;;;5008973;28;20551;-70
2022/04/06 01:55:13;;;;;;;13.27;2.40;;;19.10;76.50;;;;;;5010113;28;20099;-74
2022/04/06 01:57:40;;;;;;;6.60;1.52;;;19.10;76.40;;;;;;5006787;28;20105;-79
2022/04/06 02:00:16;;;;;;;10.55;2.15;;;19.10;76.40;;;;;;5012511;28;20022;-85
2022/04/06 02:02:44;;;;;;;;;;;19.10;76.40;;;;;;5012798;28;20016;-76
2022/04/06 02:05:12;;;;;;;8.95;2.28;;;19.10;76.30;;;;;;5008945;28;19909;-70
2022/04/06 02:07:38;;;;;;;6.57;2.03;;;19.10;76.20;;;;;;5010820;28;20021;-70
2022/04/06 02:10:05;;;;;;;10.60;3.42;;;19.10;76.20;;;;;;5008695;28;20030;-71
2022/04/06 02:12:33;;;;;;;5.65;2.13;;;19.10;76.10;;;;;;5010507;28;20025;-72
2022/04/06 02:14:59;;;;;;;8.13;2.05;;;19.10;76.00;;;;;;5011076;28;20023;-78
2022/04/06 02:17:29;;;;;;;9.25;1.92;;;19.10;75.90;;;;;;5008783;28;20026;-83
2022/04/06 02:19:56;;;;;;;11.82;2.25;;;19.10;75.80;;;;;;5011336;28;20010;-73
2022/04/06 02:22:23;;;;;;;12.73;2.03;;;19.00;75.70;;;;;;5006533;28;20026;-71
2022/04/06 02:24:50;;;;;;;11.75;2.08;;;19.00;75.50;;;;;;5007506;28;20034;-74
2022/04/06 02:27:17;;;;;;;6.78;1.77;;;19.00;75.40;;;;;;5011385;28;20025;-75
2022/04/06 02:29:43;;;;;;;10.65;2.08;;;19.00;75.30;;;;;;5009888;28;20033;-75
2022/04/06 02:32:10;;;;;;;6.30;1.33;;;19.00;75.30;;;;;;5006234;28;20062;-73
2022/04/06 02:34:37;;;;;;;5.50;1.73;;;19.00;75.30;;;;;;5010113;28;20048;-78
2022/04/06 02:37:04;;;;;;;5.22;1.80;;;18.90;75.00;;;;;;5006575;28;20029;-76
2022/04/06 02:39:31;;;;;;;10.45;2.13;;;18.90;74.90;;;;;;5011599;28;20018;-76
2022/04/06 02:41:57;;;;;;;5.75;2.08;;;18.90;74.70;;;;;;5009103;28;20442;-71
2022/04/06 02:44:24;;;;;;;7.57;1.73;;;18.80;74.60;;;;;;5009618;28;20017;-70
2022/04/06 02:46:59;;;;;;;7.22;1.30;;;18.80;74.60;;;;;;5009040;28;20046;-83
2022/04/06 02:49:25;;;;;;;19.60;2.65;;;18.80;74.60;;;;;;5020939;28;20041;-76
2022/04/06 02:51:52;;;;;;;12.32;2.42;;;18.80;74.60;;;;;;5006527;28;20426;-81
2022/04/06 02:54:19;;;;;;;6.40;1.70;;;18.70;74.50;;;;;;5007918;28;20044;-71
2022/04/06 02:56:45;;;;;;;6.03;1.60;;;18.80;74.50;;;;;;5007612;28;20085;-71
2022/04/06 02:59:15;;;;;;;4.90;1.63;;;18.70;74.40;;;;;;5005132;28;20046;-75
2022/04/06 03:01:42;;;;;;;12.90;2.47;;;18.70;74.40;;;;;;5007467;28;20032;-83
2022/04/06 03:04:08;;;;;;;11.68;1.95;;;18.70;74.50;;;;;;5001787;28;20027;-79
2022/04/06 03:06:37;;;;;;;8.10;1.98;;;18.70;74.50;;;;;;5009774;28;20469;-71
2022/04/06 03:09:04;;;;;;;8.43;2.30;;;18.70;74.40;;;;;;5007475;28;20026;-77
2022/04/06 03:11:30;;;;;;;6.20;1.98;;;18.60;74.30;;;;;;5010612;28;20026;-72
2022/04/06 03:13:57;;;;;;;4.38;1.20;;;18.60;74.20;;;;;;5007500;28;20054;-77
2022/04/06 03:16:23;;;;;;;5.45;1.25;;;18.60;74.10;;;;;;5007156;28;20093;-74
2022/04/06 03:18:50;;;;;;;5.85;1.73;;;18.60;74.20;;;;;;5003462;28;20026;-81
2022/04/06 03:21:16;;;;;;;3.17;1.38;;;18.60;74.10;;;;;;5007324;28;20363;-72
2022/04/06 03:23:43;;;;;;;4.43;1.10;;;18.60;74.10;;;;;;5017608;28;21379;-83
2022/04/06 03:26:10;;;;;;;9.38;1.50;;;18.60;74.10;;;;;;5006179;28;20037;-83
2022/04/06 03:28:38;;;;;;;7.15;1.30;;;18.60;74.20;;;;;;5004393;28;20033;-77
2022/04/06 03:31:08;;;;;;;3.97;1.10;;;18.60;74.40;;;;;;5005820;28;20017;-82
2022/04/06 03:33:35;;;;;;;24.17;3.00;;;18.50;74.80;;;;;;5007838;28;20018;-84
2022/04/06 03:36:01;;;;;;;9.70;2.97;;;18.50;74.70;;;;;;5007005;28;20036;-77
2022/04/06 03:38:28;;;;;;;21.17;11.88;;;18.50;74.40;;;;;;5009044;28;20022;-84
2022/04/06 03:40:54;;;;;;;13.82;10.20;;;18.50;74.90;;;;;;5006869;28;20030;-80
2022/04/06 03:43:22;;;;;;;16.23;10.30;;;18.40;75.20;;;;;;5008904;28;20054;-75
2022/04/06 03:45:48;;;;;;;17.52;6.57;;;18.40;75.30;;;;;;5000391;28;20022;-73
2022/04/06 03:48:15;;;;;;;10.80;3.85;;;18.40;75.40;;;;;;5005897;28;20524;-73
2022/04/06 03:50:41;;;;;;;6.13;2.17;;;18.40;75.60;;;;;;5007260;28;20520;-79
2022/04/06 03:53:08;;;;;;;4.75;1.55;;;18.40;75.60;;;;;;5013274;28;20548;-76
2022/04/06 03:55:35;;;;;;;5.85;1.17;;;18.40;76.30;;;;;;5005403;28;20512;-71
2022/04/06 03:58:01;;;;;;;5.93;1.75;;;18.40;75.70;;;;;;5005585;28;20366;-71
2022/04/06 04:00:27;;;;;;;12.15;1.60;;;18.40;75.70;;;;;;5006120;28;20025;-72
2022/04/06 04:02:54;;;;;;;5.40;1.60;;;18.40;75.60;;;;;;5005082;28;20452;-77
2022/04/06 04:05:21;;;;;;;7.43;4.10;;;18.40;76.60;;;;;;5008152;28;20473;-74
2022/04/06 04:07:47;;;;;;;8.45;4.30;;;18.40;77.20;;;;;;5009195;28;20037;-77
2022/04/06 04:10:17;;;;;;;10.23;3.13;;;18.50;77.30;;;;;;5003315;28;20028;-80
2022/04/06 04:12:43;;;;;;;5.78;2.40;;;18.50;77.20;;;;;;5004829;28;20041;-78
2022/04/06 04:15:10;;;;;;;8.00;2.30;;;18.50;77.10;;;;;;5008261;28;20464;-69
2022/04/06 04:17:37;;;;;;;7.95;2.60;;;18.50;77.20;;;;;;5008023;28;20056;-73
2022/04/06 04:20:04;;;;;;;21.92;15.35;;;18.50;77.00;;;;;;5006940;28;20374;-69
2022/04/06 04:22:30;;;;;;;16.08;10.50;;;18.50;76.80;;;;;;5004746;28;20029;-74
2022/04/06 04:24:57;;;;;;;11.00;6.07;;;18.50;76.90;;;;;;5008343;28;20508;-70
2022/04/06 04:27:23;;;;;;;12.20;4.07;;;18.50;77.10;;;;;;5006428;28;20049;-75
2022/04/06 04:29:50;;;;;;;5.80;3.47;;;18.40;77.20;;;;;;5000603;28;20045;-77
2022/04/06 04:32:17;;;;;;;5.47;2.40;;;18.40;77.10;;;;;;5007917;28;20018;-82
2022/04/06 04:34:44;;;;;;;6.45;1.52;;;18.40;77.00;;;;;;5006370;28;20101;-69
2022/04/06 04:37:10;;;;;;;6.40;1.85;;;18.40;77.10;;;;;;5005825;28;20017;-75
2022/04/06 04:39:37;;;;;;;3.92;2.38;;;18.40;77.10;;;;;;5006594;28;20018;-70
2022/04/06 04:42:04;;;;;;;3.58;2.00;;;18.40;77.10;;;;;;5020557;28;20109;-70
2022/04/06 04:44:31;;;;;;;5.30;1.50;;;18.40;77.10;;;;;;5007006;28;20022;-74
2022/04/06 04:46:58;;;;;;;14.18;3.90;;;18.40;77.10;;;;;;5006924;28;20018;-73
2022/04/06 04:49:25;;;;;;;11.18;2.92;;;18.40;77.30;;;;;;5004255;28;20084;-71
2022/04/06 04:51:51;;;;;;;10.20;3.30;;;18.40;77.50;;;;;;5005440;28;20022;-72
2022/04/06 04:54:58;;;;;;;11.98;2.10;;;18.40;77.60;;;;;;5007047;28;20026;-71
2022/04/06 04:58:04;;;;;;;9.20;2.72;;;18.40;77.60;;;;;;5005539;28;20041;-74
2022/04/06 05:01:10;;;;;;;5.47;1.98;;;18.40;77.70;;;;;;5008012;28;20425;-71
2022/04/06 05:04:16;;;;;;;8.27;1.83;;;18.40;78.00;;;;;;5005500;28;20052;-75
2022/04/06 05:07:22;;;;;;;11.25;2.35;;;18.40;78.10;;;;;;5006543;28;20010;-74
2022/04/06 05:10:28;;;;;;;15.77;2.55;;;18.40;78.10;;;;;;5008000;28;20486;-72
2022/04/06 05:13:34;;;;;;;8.82;1.65;;;18.40;78.10;;;;;;5006510;28;20440;-71
2022/04/06 05:16:40;;;;;;;7.65;1.65;;;18.40;78.20;;;;;;5007541;28;20022;-75
2022/04/06 05:19:46;;;;;;;12.93;2.17;;;18.40;78.30;;;;;;5005306;28;20025;-71
2022/04/06 05:22:52;;;;;;;13.38;2.70;;;18.40;78.50;;;;;;5004327;28;20614;-74
2022/04/06 05:25:20;;;;;;;7.50;2.05;;;18.40;78.70;;;;;;5005732;28;20014;-73
2022/04/06 05:27:52;;;;;;;11.02;2.10;;;18.40;78.80;;;;;;5007200;28;20026;-77
2022/04/06 05:30:20;;;;;;;12.02;2.58;;;18.40;78.90;;;;;;5006789;28;20034;-77
2022/04/06 05:32:49;;;;;;;9.98;2.50;;;18.40;78.90;;;;;;5007078;28;20041;-77
2022/04/06 05:35:15;;;;;;;3.22;2.30;;;18.50;78.90;;;;;;5004468;28;20022;-77
2022/04/06 05:37:44;;;;;;;7.78;2.53;;;18.50;79.10;;;;;;5006284;28;20030;-75
2022/04/06 05:40:13;;;;;;;7.20;1.70;;;18.50;79.10;;;;;;5008242;28;20009;-82
2022/04/06 05:42:41;;;;;;;7.68;1.85;;;18.50;79.20;;;;;;5005936;28;20045;-71
2022/04/06 05:45:08;;;;;;;11.93;2.70;;;18.50;79.20;;;;;;5009209;28;20014;-76
2022/04/06 05:47:36;;;;;;;14.55;1.83;;;18.60;79.30;;;;;;5004429;28;20014;-71
2022/04/06 05:50:05;;;;;;;9.02;2.45;;;18.60;79.40;;;;;;5007957;28;20041;-71
2022/04/06 05:52:31;;;;;;;9.98;1.73;;;18.60;79.60;;;;;;5006669;28;20032;-77
2022/04/06 05:54:58;;;;;;;4.63;2.22;;;18.60;79.60;;;;;;5008560;28;20061;-76
2022/04/06 05:57:24;;;;;;;7.25;1.45;;;18.60;79.80;;;;;;5006025;28;20018;-70
2022/04/06 05:59:51;;;;;;;18.80;2.60;;;18.70;79.90;;;;;;5007418;28;20136;-75
2022/04/06 06:02:19;;;;;;;14.40;2.83;;;18.70;79.70;;;;;;5008294;28;20026;-74
2022/04/06 06:04:45;;;;;;;11.55;3.38;;;18.70;79.80;;;;;;5005261;28;20068;-76
2022/04/06 06:07:12;;;;;;;15.75;3.92;;;18.70;80.00;;;;;;5018889;28;20040;-76
2022/04/06 06:09:38;;;;;;;18.52;3.38;;;18.70;80.40;;;;;;5005287;28;20132;-75
2022/04/06 06:12:05;;;;;;;11.98;3.50;;;18.70;80.90;;;;;;5005854;28;20152;-75
2022/04/06 06:14:32;;;;;;;17.83;3.60;;;18.70;81.60;;;;;;5006121;28;20363;-74
2022/04/06 06:16:58;;;;;;;14.63;3.03;;;18.70;82.00;;;;;;5003919;28;20053;-75
2022/04/06 06:19:26;;;;;;;6.55;2.83;;;18.70;82.20;;;;;;5002172;28;20018;-75
2022/04/06 06:21:53;;;;;;;9.88;3.67;;;18.70;82.30;;;;;;5007885;28;20016;-72
2022/04/06 06:24:21;;;;;;;9.07;2.67;;;18.70;82.40;;;;;;5008683;28;20040;-74
2022/04/06 06:26:48;;;;;;;7.40;2.80;;;18.70;82.60;;;;;;5006836;28;20022;-74
2022/04/06 06:29:15;;;;;;;11.10;2.85;;;18.70;82.60;;;;;;5012438;28;20438;-75
2022/04/06 06:31:41;;;;;;;6.30;2.38;;;18.70;82.60;;;;;;5008812;28;20515;-72
2022/04/06 06:34:08;;;;;;;9.20;2.70;;;18.70;82.60;;;;;;5010047;28;20539;-75
2022/04/06 06:36:34;;;;;;;5.07;2.17;;;18.70;82.80;;;;;;5006944;28;20041;-75
2022/04/06 06:39:01;;;;;;;14.43;2.67;;;18.70;82.90;;;;;;5010785;28;20072;-75
2022/04/06 06:41:29;;;;;;;9.85;2.22;;;18.70;83.10;;;;;;5008830;28;20021;-75
2022/04/06 06:43:56;;;;;;;7.70;1.95;;;18.70;83.30;;;;;;5009241;28;20014;-76
2022/04/06 06:46:23;;;;;;;3.00;1.55;;;18.70;83.20;;;;;;5010147;28;20017;-75
2022/04/06 06:48:51;;;;;;;5.30;1.90;;;18.70;83.30;;;;;;5010632;28;20113;-75
2022/04/06 06:51:18;;;;;;;12.40;2.10;;;18.70;83.40;;;;;;5011753;28;20014;-73
2022/04/06 06:53:44;;;;;;;10.73;2.08;;;18.70;83.50;;;;;;5010471;28;20032;-76
2022/04/06 06:56:11;;;;;;;3.80;2.10;;;18.70;83.80;;;;;;5008626;28;20033;-71
2022/04/06 06:58:37;;;;;;;3.65;1.67;;;18.80;84.10;;;;;;5010688;28;20022;-76
2022/04/06 07:01:04;;;;;;;17.23;3.10;;;18.80;84.40;;;;;;5010312;28;20045;-73
2022/04/06 07:03:30;;;;;;;12.77;2.30;;;18.80;84.40;;;;;;5008052;28;20025;-76
2022/04/06 07:05:57;;;;;;;4.75;1.63;;;18.80;84.30;;;;;;5011014;28;20109;-71
2022/04/06 07:08:23;;;;;;;7.32;1.70;;;18.80;84.20;;;;;;5007800;28;20034;-72
2022/04/06 07:10:50;;;;;;;4.13;1.73;;;18.90;84.20;;;;;;5010202;28;20026;-75
2022/04/06 07:13:17;;;;;;;8.70;2.13;;;18.90;84.20;;;;;;5011334;28;20133;-78
2022/04/06 07:15:44;;;;;;;15.15;2.17;;;18.90;84.20;;;;;;4998572;28;20022;-76
2022/04/06 07:18:12;;;;;;;13.48;3.40;;;18.90;84.20;;;;;;5004090;28;20020;-72
2022/04/06 07:20:39;;;;;;;10.95;2.22;;;18.90;84.00;;;;;;5003678;28;20441;-72
2022/04/06 07:23:08;;;;;;;5.65;2.33;;;18.90;84.10;;;;;;4999497;28;20109;-75
2022/04/06 07:25:35;;;;;;;6.60;1.73;;;18.90;84.20;;;;;;5001238;28;20528;-72
2022/04/06 07:28:03;;;;;;;5.13;1.85;;;18.90;84.10;;;;;;5004304;28;20117;-77
2022/04/06 07:30:30;;;;;;;4.15;1.58;;;18.90;84.00;;;;;;5000686;28;20866;-71
2022/04/06 07:32:58;;;;;;;6.53;2.20;;;19.00;84.00;;;;;;4999815;28;20019;-80
2022/04/06 07:35:24;;;;;;;10.52;1.35;;;19.00;84.00;;;;;;5001098;28;20057;-74
2022/04/06 07:37:52;;;;;;;10.30;1.50;;;19.00;84.20;;;;;;4995995;28;20065;-71
2022/04/06 07:40:21;;;;;;;17.42;2.08;;;19.00;84.50;;;;;;5003818;28;20021;-75
2022/04/06 07:42:52;;;;;;;20.52;1.83;;;19.10;85.00;;;;;;5004173;28;20113;-72
2022/04/06 07:45:20;;;;;;;3.10;1.35;;;19.10;85.10;;;;;;5004535;28;20540;-76
2022/04/06 07:47:48;;;;;;;9.63;2.95;;;19.10;85.10;;;;;;4997996;28;20025;-75
2022/04/06 07:50:16;;;;;;;5.57;2.05;;;19.10;84.90;;;;;;5002926;28;20499;-76
2022/04/06 07:52:44;;;;;;;7.47;2.28;;;19.10;84.90;;;;;;5001631;28;20036;-75
2022/04/06 07:55:12;;;;;;;7.25;2.83;;;19.10;84.90;;;;;;4998030;28;20039;-74
2022/04/06 07:57:39;;;;;;;8.98;3.33;;;19.00;84.90;;;;;;5000334;28;20077;-78
2022/04/06 08:00:10;;;;;;;29.30;3.65;;;19.00;84.90;;;;;;4999988;28;20054;-76
2022/04/06 08:02:37;;;;;;;12.65;2.40;;;19.00;85.10;;;;;;4999643;28;20496;-76
2022/04/06 08:05:05;;;;;;;12.88;3.55;;;19.00;85.20;;;;;;4999879;28;20105;-75
2022/04/06 08:07:32;;;;;;;7.30;2.58;;;19.00;85.20;;;;;;5001186;28;20470;-78
2022/04/06 08:09:59;;;;;;;8.63;2.20;;;19.00;85.20;;;;;;5001441;28;20480;-72
2022/04/06 08:12:26;;;;;;;9.02;2.08;;;19.00;85.20;;;;;;5000701;28;20022;-73
2022/04/06 08:14:53;;;;;;;9.93;2.38;;;19.10;85.30;;;;;;5000443;28;20026;-74
2022/04/06 08:17:19;;;;;;;14.82;3.45;;;19.10;85.20;;;;;;5000126;28;20550;-71
2022/04/06 08:19:46;;;;;;;16.10;1.92;;;19.10;85.30;;;;;;4999439;28;20032;-77
2022/04/06 08:22:13;;;;;;;2.70;0.82;;;19.10;85.50;;;;;;5003492;28;20279;-78
2022/04/06 08:24:39;;;;;;;7.88;1.83;;;19.10;85.40;;;;;;4999964;28;20027;-74
2022/04/06 08:27:06;;;;;;;6.00;1.25;;;19.10;85.40;;;;;;5000696;28;20018;-70
2022/04/06 08:29:32;;;;;;;3.95;1.45;;;19.10;85.40;;;;;;5001252;28;20125;-71
2022/04/06 08:31:59;;;;;;;6.45;1.50;;;19.20;85.30;;;;;;4999522;28;20061;-74
2022/04/06 08:34:27;;;;;;;6.65;1.63;;;19.20;85.10;;;;;;4995106;28;20973;-77
2022/04/06 08:36:53;;;;;;;6.75;1.58;;;19.20;84.80;;;;;;4999091;28;20053;-77
2022/04/06 08:39:19;;;;;;;10.07;1.92;;;19.20;84.80;;;;;;4998974;28;20068;-77
2022/04/06 08:41:48;;;;;;;6.60;1.52;;;19.20;84.70;;;;;;4996592;28;20983;-76
2022/04/06 08:44:16;;;;;;;7.35;2.00;;;19.20;84.50;;;;;;4998175;28;20014;-78
2022/04/06 08:46:45;;;;;;;10.32;2.40;;;19.20;84.40;;;;;;4998745;28;20026;-79
2022/04/06 08:49:13;;;;;;;4.85;1.65;;;19.20;84.40;;;;;;4999655;28;20042;-74
2022/04/06 08:51:40;;;;;;;5.35;2.15;;;19.20;84.20;;;;;;4997484;28;20382;-71
2022/04/06 08:54:08;;;;;;;19.98;2.30;;;19.20;84.20;;;;;;4999426;28;20026;-70
2022/04/06 08:56:34;;;;;;;8.98;2.03;;;19.20;84.00;;;;;;5006711;28;20501;-71
2022/04/06 08:59:01;;;;;;;12.05;3.20;;;19.30;83.90;;;;;;5009770;28;20024;-77
2022/04/06 09:01:31;;;;;;;8.52;1.83;;;19.30;83.80;;;;;;5004287;28;20006;-80
2022/04/06 09:03:59;;;;;;;5.05;1.85;;;19.30;83.60;;;;;;5006386;28;20153;-77
2022/04/06 09:06:29;;;;;;;6.20;1.85;;;19.30;83.50;;;;;;5005366;28;20026;-71
2022/04/06 09:08:55;;;;;;;3.92;1.30;;;19.40;83.40;;;;;;5010056;28;20056;-72
2022/04/06 09:11:22;;;;;;;7.22;2.20;;;19.40;83.30;;;;;;5006062;28;20053;-78
2022/04/06 09:13:59;;;;;;;5.68;2.42;;;19.40;83.10;;;;;;5006092;28;20026;-72
2022/04/06 09:16:29;;;;;;;6.65;1.65;;;19.50;83.00;;;;;;5007300;28;20054;-70
2022/04/06 09:18:56;;;;;;;8.07;2.25;;;19.40;83.10;;;;;;5008579;28;20029;-70
2022/04/06 09:21:22;;;;;;;7.03;1.67;;;19.40;83.20;;;;;;5008671;28;20151;-73
2022/04/06 09:23:49;;;;;;;6.35;1.60;;;19.50;83.20;;;;;;5006136;28;20018;-74
2022/04/06 09:26:21;;;;;;;4.93;2.17;;;19.50;83.60;;;;;;5007220;28;20191;-70
2022/04/06 09:28:50;;;;;;;4.13;1.38;;;19.50;83.40;;;;;;5007104;28;20563;-75
2022/04/06 09:31:18;;;;;;;10.02;1.95;;;19.40;83.20;;;;;;5006388;28;20144;-71
2022/04/06 09:33:59;;;;;;;7.15;1.75;;;19.40;83.10;;;;;;5005042;28;20022;-73
2022/04/06 09:36:28;;;;;;;6.47;1.85;;;19.50;83.10;;;;;;5005793;28;20397;-76
2022/04/06 09:38:54;;;;;;;3.03;1.77;;;19.50;83.00;;;;;;5008141;28;20060;-76
2022/04/06 09:41:21;;;;;;;4.13;1.67;;;19.50;83.00;;;;;;5006219;28;20041;-76
2022/04/06 09:43:53;;;;;;;8.15;2.03;;;19.50;83.00;;;;;;5009029;28;20026;-70
2022/04/06 09:49:08;;;;;;;9.20;2.00;;;19.60;82.80;;;;;;5004391;28;20516;-75
2022/04/06 09:51:38;;;;;;;5.05;1.48;;;19.60;82.50;;;;;;5006661;28;20355;-79
2022/04/06 09:54:07;;;;;;;8.25;1.55;;;19.60;81.90;;;;;;5006537;28;20041;-76
2022/04/06 09:56:35;;;;;;;8.48;1.92;;;19.60;81.30;;;;;;5005425;28;20800;-79
2022/04/06 09:59:03;;;;;;;9.80;1.92;;;19.60;81.70;;;;;;5006696;28;20030;-80
2022/04/06 10:01:52;;;;;;;9.82;1.70;;;19.60;80.90;;;;;;5008501;28;20023;-80
2022/04/06 10:04:22;;;;;;;5.28;1.50;;;19.60;80.90;;;;;;5010271;28;20428;-79
2022/04/06 10:06:49;;;;;;;8.57;1.83;;;19.60;80.90;;;;;;5009705;28;20391;-79
2022/04/06 10:09:16;;;;;;;6.47;2.08;;;19.70;80.70;;;;;;5011735;28;20551;-80
2022/04/06 10:11:43;;;;;;;10.75;1.75;;;19.70;80.40;;;;;;5009407;28;20022;-72
2022/04/06 10:14:11;;;;;;;10.35;1.55;;;19.70;80.30;;;;;;5010093;28;20171;-80
2022/04/06 10:16:39;;;;;;;8.07;1.63;;;19.80;80.20;;;;;;5010719;28;20065;-74
2022/04/06 10:19:13;;;;;;;14.88;2.00;;;19.80;80.00;;;;;;5011724;28;20014;-72
2022/04/06 10:21:55;;;;;;;7.00;1.58;;;19.90;79.80;;;;;;5011740;28;20497;-77
2022/04/06 10:24:40;;;;;;;7.25;1.40;;;19.90;79.60;;;;;;5009261;28;20033;-71
2022/04/06 10:27:41;;;;;;;14.10;1.70;;;20.00;79.20;;;;;;5009638;28;20083;-77
2022/04/06 10:30:13;;;;;;;7.90;1.60;;;20.10;78.40;;;;;;5011450;28;20104;-78
2022/04/06 10:32:50;;;;;;;7.30;1.70;;;20.10;77.80;;;;;;4996536;28;20394;-70
2022/04/06 10:35:27;;;;;;;7.50;2.00;;;20.20;77.20;;;;;;5010080;28;20073;-76
2022/04/06 10:37:56;;;;;;;8.02;1.23;;;20.30;77.00;;;;;;5011202;28;20025;-78
2022/04/06 10:40:30;;;;;;;6.57;1.48;;;20.40;76.50;;;;;;5008552;28;20022;-76
2022/04/06 10:42:57;;;;;;;8.15;2.13;;;20.40;76.10;;;;;;5012309;28;20088;-76
2022/04/06 10:45:29;;;;;;;7.47;2.00;;;20.50;75.70;;;;;;5008503;28;20025;-74
2022/04/06 10:48:22;;;;;;;14.10;2.95;;;20.50;75.00;;;;;;5009106;28;20097;-77
2022/04/06 10:51:46;;;;;;;11.55;2.25;;;20.50;75.50;;;;;;5010085;28;20060;-72
2022/04/06 10:54:13;;;;;;;8.93;2.15;;;20.60;75.00;;;;;;5010028;28;20037;-71
2022/04/06 10:57:31;;;;;;;13.75;2.42;;;20.70;74.80;;;;;;5008970;28;20042;-71
2022/04/06 11:00:52;;;;;;;10.18;3.13;;;20.70;74.00;;;;;;5010913;28;20097;-74
2022/04/06 11:04:01;;;;;;;9.93;2.97;;;20.70;73.20;;;;;;5008500;28;20058;-73
2022/04/06 11:07:03;;;;;;;14.65;2.13;;;20.70;72.80;;;;;;5006655;28;20036;-77
2022/04/06 11:10:07;;;;;;;8.20;2.28;;;20.80;72.30;;;;;;5010047;28;20034;-72
2022/04/06 11:13:13;;;;;;;15.70;2.50;;;20.80;72.10;;;;;;5007976;28;20163;-78
2022/04/06 11:16:19;;;;;;;7.95;2.05;;;20.70;71.70;;;;;;5007876;28;20033;-71
2022/04/06 11:18:49;;;;;;;13.98;2.90;;;20.70;71.30;;;;;;5006261;28;20018;-74
2022/04/06 11:21:16;;;;;;;14.27;2.53;;;20.70;71.20;;;;;;4999560;28;20037;-72
2022/04/06 11:23:43;;;;;;;7.60;1.63;;;20.70;70.50;;;;;;5000057;28;20030;-70
2022/04/06 11:26:10;;;;;;;5.68;1.90;;;20.70;68.70;;;;;;5006897;28;20044;-71
2022/04/06 11:28:36;;;;;;;9.63;2.00;;;20.70;67.00;;;;;;5005288;28;20026;-72
2022/04/06 11:31:04;;;;;;;8.30;1.95;;;20.60;65.80;;;;;;5004173;28;20105;-75
2022/04/06 11:33:43;;;;;;;8.02;3.15;;;20.70;65.40;;;;;;5003117;28;20097;-71
2022/04/06 11:36:14;;;;;;;14.32;4.10;;;20.70;65.10;;;;;;5007023;28;20025;-71
2022/04/06 11:38:49;;;;;;;10.98;1.92;;;20.70;64.70;;;;;;5008365;28;20057;-71
2022/04/06 11:41:18;;;;;;;11.10;2.38;;;20.80;64.90;;;;;;5004014;28;20453;-71
2022/04/06 11:43:46;;;;;;;8.82;2.00;;;20.80;64.60;;;;;;5004582;28;20029;-71
2022/04/06 11:46:12;;;;;;;10.02;2.03;;;20.80;64.20;;;;;;5005608;28;20108;-70
2022/04/06 11:48:45;;;;;;;8.98;1.80;;;20.90;63.70;;;;;;5006121;28;20041;-73
2022/04/06 11:51:12;;;;;;;10.13;1.77;;;20.90;63.00;;;;;;5002440;28;20026;-71
2022/04/06 11:53:39;;;;;;;14.25;2.83;;;21.00;63.00;;;;;;5005316;28;20030;-70
2022/04/06 11:56:05;;;;;;;8.65;2.78;;;21.10;62.90;;;;;;5004121;28;20520;-72
2022/04/06 11:58:39;;;;;;;11.88;1.98;;;21.10;62.20;;;;;;5006577;28;20033;-71
2022/04/06 12:01:11;;;;;;;8.82;2.08;;;21.20;61.80;;;;;;5005995;28;20481;-71
2022/04/06 12:03:42;;;;;;;9.07;2.63;;;21.30;60.80;;;;;;5005216;28;20046;-70
2022/04/06 12:06:14;;;;;;;8.05;1.70;;;21.30;60.60;;;;;;5007361;28;20025;-71
2022/04/06 12:08:42;;;;;;;8.98;2.25;;;21.30;60.80;;;;;;5006484;28;20072;-70
2022/04/06 12:11:09;;;;;;;5.63;1.50;;;21.30;59.90;;;;;;5005789;28;20022;-74
2022/04/06 12:13:38;;;;;;;3.85;1.23;;;21.40;59.70;;;;;;5006975;28;20049;-70
2022/04/06 12:16:08;;;;;;;9.93;1.83;;;21.40;59.70;;;;;;5005233;28;20065;-70
2022/04/06 12:18:39;;;;;;;7.38;2.08;;;21.40;59.50;;;;;;5004917;28;20156;-70
2022/04/06 12:21:19;;;;;;;5.20;1.73;;;21.50;59.60;;;;;;5006115;28;20095;-70
2022/04/06 12:23:47;;;;;;;8.35;1.73;;;21.50;58.70;;;;;;5006390;28;20080;-69
2022/04/06 12:26:13;;;;;;;6.75;2.72;;;21.50;58.40;;;;;;5006525;28;20524;-72
2022/04/06 12:28:40;;;;;;;13.55;2.33;;;21.50;58.60;;;;;;5005331;28;20040;-69
2022/04/06 12:31:08;;;;;;;4.93;2.03;;;21.50;58.50;;;;;;5005457;28;20068;-71
2022/04/06 12:33:50;;;;;;;5.28;1.33;;;21.50;58.30;;;;;;5004708;28;20022;-71
2022/04/06 12:36:23;;;;;;;7.68;3.50;;;21.40;57.50;;;;;;5003001;28;20109;-71
2022/04/06 12:39:10;;;;;;;7.57;2.40;;;21.40;57.10;;;;;;5003584;28;20018;-71
2022/04/06 12:41:59;;;;;;;6.25;1.98;;;21.40;57.00;;;;;;5005117;28;20428;-72
2022/04/06 12:44:30;;;;;;;7.20;2.45;;;21.30;56.80;;;;;;5006949;28;20367;-72
2022/04/06 12:46:58;;;;;;;10.63;2.00;;;21.30;56.50;;;;;;5002036;28;20037;-72
2022/04/06 12:49:39;;;;;;;7.03;1.38;;;21.20;56.80;;;;;;5005548;28;20022;-76
2022/04/06 12:52:20;;;;;;;9.93;2.10;;;21.20;57.50;;;;;;5003852;28;20022;-74
2022/04/06 12:55:00;;;;;;;8.80;2.17;;;21.20;58.00;;;;;;5004361;28;20026;-71
2022/04/06 12:57:52;;;;;;;5.85;1.67;;;21.20;58.00;;;;;;5001632;28;20697;-70
2022/04/06 13:00:18;;;;;;;10.35;2.05;;;21.10;58.20;;;;;;5006240;28;20060;-70
2022/04/06 13:02:52;;;;;;;6.43;1.30;;;21.20;58.30;;;;;;5002279;28;20041;-71
2022/04/06 13:05:20;;;;;;;9.57;1.65;;;21.20;57.30;;;;;;5000520;28;20021;-70
2022/04/06 13:07:48;;;;;;;7.65;1.60;;;21.10;57.20;;;;;;5005451;28;20014;-70